createdAt,value
2019-02-05T00:01:12.956Z,0.90
2019-02-05T00:03:41.837Z,0.90
2019-02-05T00:06:10.800Z,0.90
2019-02-05T00:08:41.135Z,1.00
2019-02-05T00:11:14.864Z,0.90
2019-02-05T00:13:44.041Z,0.80
2019-02-05T00:16:13.167Z,0.80
2019-02-05T00:18:41.968Z,0.70
2019-02-05T00:21:10.968Z,0.70
2019-02-05T00:23:40.115Z,0.70
2019-02-05T00:26:09.112Z,0.70
2019-02-05T00:28:38.052Z,0.70
2019-02-05T00:31:06.908Z,0.70
2019-02-05T00:33:35.712Z,0.70
2019-02-05T00:36:06.856Z,0.70
2019-02-05T00:38:35.632Z,0.70
2019-02-05T00:41:06.429Z,0.70
2019-02-05T00:43:35.345Z,0.70
2019-02-05T00:46:05.412Z,0.80
2019-02-05T00:48:34.559Z,0.80
2019-02-05T00:51:03.432Z,0.80
2019-02-05T00:53:32.537Z,0.70
2019-02-05T00:56:01.993Z,0.70
2019-02-05T00:58:31.072Z,0.70
2019-02-05T01:01:00.244Z,0.70
2019-02-05T01:03:29.272Z,0.70
2019-02-05T01:05:58.639Z,0.70
2019-02-05T01:08:27.669Z,0.60
2019-02-05T01:10:56.569Z,0.60
2019-02-05T01:13:25.995Z,0.50
2019-02-05T01:15:55.093Z,0.50
2019-02-05T01:18:24.061Z,0.60
2019-02-05T01:20:53.129Z,0.60
2019-02-05T01:23:22.113Z,0.60
2019-02-05T01:25:51.027Z,0.70
2019-02-05T01:28:19.886Z,0.70
2019-02-05T01:30:48.799Z,0.70
2019-02-05T01:33:17.728Z,0.70
2019-02-05T01:35:47.679Z,0.70
2019-02-05T01:38:16.712Z,0.70
2019-02-05T01:40:45.532Z,0.80
2019-02-05T01:43:14.537Z,0.80
2019-02-05T01:45:43.400Z,0.80
2019-02-05T01:48:12.307Z,0.90
2019-02-05T01:50:41.347Z,0.90
2019-02-05T01:53:10.311Z,0.90
2019-02-05T01:55:39.128Z,0.90
2019-02-05T01:58:08.286Z,0.80
2019-02-05T02:00:38.600Z,0.80
2019-02-05T02:03:07.577Z,0.70
2019-02-05T02:05:36.457Z,0.60
2019-02-05T02:08:06.063Z,0.60
2019-02-05T02:10:35.424Z,0.50
2019-02-05T02:13:04.728Z,0.50
2019-02-05T02:15:33.930Z,0.40
2019-02-05T02:18:02.924Z,0.50
2019-02-05T02:20:31.900Z,0.30
2019-02-05T02:23:00.902Z,0.40
2019-02-05T02:25:29.793Z,0.40
2019-02-05T02:27:58.666Z,0.30
2019-02-05T02:30:33.009Z,0.30
2019-02-05T02:33:01.811Z,0.10
2019-02-05T02:35:30.764Z,0.00
2019-02-05T02:37:59.667Z,-0.10
2019-02-05T02:40:28.633Z,-0.20
2019-02-05T02:42:57.574Z,-0.30
2019-02-05T02:45:26.560Z,-0.30
2019-02-05T02:47:55.737Z,-0.20
2019-02-05T02:50:24.632Z,0.00
2019-02-05T02:52:53.538Z,0.00
2019-02-05T02:55:22.516Z,0.20
2019-02-05T02:57:51.624Z,0.30
2019-02-05T03:00:21.054Z,0.30
2019-02-05T03:02:50.202Z,0.50
2019-02-05T03:05:20.776Z,0.40
2019-02-05T03:07:50.054Z,0.50
2019-02-05T03:10:24.073Z,0.50
2019-02-05T03:12:53.136Z,0.40
2019-02-05T03:15:22.229Z,0.40
2019-02-05T03:17:51.225Z,0.30
2019-02-05T03:20:20.122Z,0.20
2019-02-05T03:22:50.918Z,0.20
2019-02-05T03:25:21.059Z,0.20
2019-02-05T03:27:53.493Z,0.10
2019-02-05T03:30:22.840Z,0.10
2019-02-05T03:32:52.163Z,0.10
2019-02-05T03:35:21.786Z,0.00
2019-02-05T03:37:51.075Z,-0.10
2019-02-05T03:41:00.537Z,-0.10
2019-02-05T03:43:30.227Z,-0.20
2019-02-05T03:46:00.255Z,-0.30
2019-02-05T03:48:29.472Z,-0.40
2019-02-05T03:51:38.556Z,-0.20
2019-02-05T03:54:28.611Z,-0.20
2019-02-05T03:57:30.638Z,-0.10
2019-02-05T04:00:06.242Z,-0.20
2019-02-05T04:03:28.494Z,-0.20
2019-02-05T04:06:14.294Z,-0.20
2019-02-05T04:09:12.991Z,-0.30
2019-02-05T04:12:18.848Z,-0.30
2019-02-05T04:15:31.645Z,-0.30
2019-02-05T04:18:43.648Z,-0.30
2019-02-05T04:21:42.509Z,-0.30
2019-02-05T04:24:34.350Z,-0.30
2019-02-05T04:27:43.727Z,-0.30
2019-02-05T04:30:41.688Z,-0.30
2019-02-05T04:33:24.181Z,-0.30
2019-02-05T04:36:27.908Z,-0.30
2019-02-05T04:39:20.638Z,-0.30
2019-02-05T04:42:12.345Z,-0.20
2019-02-05T04:45:17.433Z,0.00
2019-02-05T04:48:26.962Z,-0.10
2019-02-05T04:51:26.931Z,0.10
2019-02-05T04:54:27.385Z,0.30
2019-02-05T04:57:18.095Z,0.30
2019-02-05T05:00:05.859Z,0.10
2019-02-05T05:03:23.897Z,0.00
2019-02-05T05:06:19.324Z,0.10
2019-02-05T05:09:53.410Z,0.40
2019-02-05T05:12:22.808Z,0.50
2019-02-05T05:14:51.776Z,0.50
2019-02-05T05:17:23.679Z,0.50
2019-02-05T05:19:52.754Z,0.30
2019-02-05T05:22:21.904Z,0.10
2019-02-05T05:24:50.972Z,-0.10
2019-02-05T05:27:21.360Z,-0.20
2019-02-05T05:29:50.279Z,-0.20
2019-02-05T05:32:20.872Z,-0.30
2019-02-05T05:34:49.780Z,-0.30
2019-02-05T05:37:17.427Z,-0.40
2019-02-05T05:39:46.363Z,-0.50
2019-02-05T05:42:15.460Z,-0.60
2019-02-05T05:44:44.852Z,-0.70
2019-02-05T05:47:13.800Z,-0.80
2019-02-05T05:49:42.842Z,-1.00
2019-02-05T05:52:14.117Z,-0.90
2019-02-05T05:54:43.040Z,-1.20
2019-02-05T05:57:12.070Z,-1.10
2019-02-05T05:59:41.073Z,-1.10
2019-02-05T06:02:10.242Z,-1.10
2019-02-05T06:04:39.347Z,-1.10
2019-02-05T06:07:08.468Z,-1.20
2019-02-05T06:09:37.660Z,-1.20
2019-02-05T06:12:06.748Z,-1.20
2019-02-05T06:14:35.842Z,-1.20
2019-02-05T06:17:05.430Z,-1.10
2019-02-05T06:19:34.552Z,-1.40
2019-02-05T06:22:03.729Z,-1.30
2019-02-05T06:24:33.817Z,-1.50
2019-02-05T06:27:03.264Z,-1.60
2019-02-05T06:29:32.284Z,-1.60
2019-02-05T06:32:01.513Z,-1.60
2019-02-05T06:34:30.633Z,-1.60
2019-02-05T06:36:59.827Z,-1.60
2019-02-05T06:39:29.118Z,-1.50
2019-02-05T06:41:58.130Z,-1.50
2019-02-05T06:44:27.331Z,-1.40
2019-02-05T06:46:56.517Z,-1.40
2019-02-05T06:49:25.738Z,-1.40
2019-02-05T06:51:54.830Z,-1.30
2019-02-05T06:54:24.017Z,-1.40
2019-02-05T06:56:53.024Z,-1.50
2019-02-05T06:59:21.997Z,-1.40
2019-02-05T07:01:50.942Z,-1.40
2019-02-05T07:04:19.947Z,-1.30
2019-02-05T07:06:49.716Z,-1.30
2019-02-05T07:09:19.047Z,-1.40
2019-02-05T07:11:49.295Z,-1.20
2019-02-05T07:14:18.603Z,-1.00
2019-02-05T07:16:47.759Z,-0.90
2019-02-05T07:19:16.727Z,-0.50
2019-02-05T07:21:45.998Z,-0.40
2019-02-05T07:24:17.439Z,-0.40
2019-02-05T07:26:46.888Z,-0.70
2019-02-05T07:29:15.980Z,-0.90
2019-02-05T07:31:45.129Z,-0.90
2019-02-05T07:34:15.966Z,-1.00
2019-02-05T07:36:45.271Z,-1.20
2019-02-05T07:39:15.853Z,-1.00
2019-02-05T07:41:44.729Z,-0.80
2019-02-05T07:44:15.573Z,-0.70
2019-02-05T07:46:44.727Z,-0.60
2019-02-05T07:49:13.955Z,-0.60
2019-02-05T07:51:46.224Z,-0.40
2019-02-05T07:54:17.262Z,-0.40
2019-02-05T07:56:47.349Z,-0.40
2019-02-05T07:59:16.650Z,-0.30
2019-02-05T08:01:45.755Z,-0.10
2019-02-05T08:04:14.796Z,0.00
2019-02-05T08:06:43.744Z,0.20
2019-02-05T08:09:12.714Z,0.40
2019-02-05T08:11:41.948Z,0.50
2019-02-05T08:14:11.037Z,0.60
2019-02-05T08:16:40.690Z,0.70
2019-02-05T08:19:09.905Z,0.80
2019-02-05T08:21:40.568Z,1.00
2019-02-05T08:24:09.575Z,1.10
2019-02-05T08:26:38.539Z,1.00
2019-02-05T08:29:07.624Z,0.70
2019-02-05T08:31:36.629Z,0.80
2019-02-05T08:34:05.513Z,0.90
2019-02-05T08:36:34.545Z,0.80
2019-02-05T08:39:04.610Z,0.90
2019-02-05T08:41:33.928Z,1.00
2019-02-05T08:44:07.033Z,1.00
2019-02-05T08:46:36.232Z,1.10
2019-02-05T08:49:05.198Z,1.20
2019-02-05T08:51:34.226Z,1.40
2019-02-05T08:54:03.263Z,1.50
2019-02-05T08:56:32.571Z,1.60
2019-02-05T08:59:01.743Z,1.70
2019-02-05T09:01:31.092Z,1.80
2019-02-05T09:04:00.210Z,2.00
2019-02-05T09:06:29.277Z,2.10
2019-02-05T09:08:58.184Z,2.10
2019-02-05T09:11:27.205Z,2.10
2019-02-05T09:13:57.641Z,2.20
2019-02-05T09:16:26.682Z,2.30
2019-02-05T09:18:55.985Z,2.40
2019-02-05T09:21:25.490Z,2.50
2019-02-05T09:23:54.546Z,2.70
2019-02-05T09:26:23.412Z,2.80
2019-02-05T09:28:52.614Z,2.90
2019-02-05T09:31:21.579Z,3.00
2019-02-05T09:37:37.682Z,3.30
2019-02-05T09:50:08.719Z,3.70
2019-02-05T09:52:37.593Z,4.00
2019-02-05T09:55:06.952Z,4.10
2019-02-05T09:57:35.913Z,4.00
2019-02-05T10:00:08.413Z,4.10
2019-02-05T10:02:37.445Z,4.10
2019-02-05T10:05:07.898Z,4.20
2019-02-05T10:07:37.383Z,3.90
2019-02-05T10:10:08.313Z,4.00
2019-02-05T10:12:37.196Z,3.90
2019-02-05T10:15:08.836Z,4.10
2019-02-05T10:17:37.830Z,4.00
2019-02-05T10:20:06.898Z,3.90
2019-02-05T10:22:36.400Z,4.00
2019-02-05T10:25:06.074Z,4.00
2019-02-05T10:27:34.929Z,4.10
2019-02-05T10:30:04.094Z,4.20
2019-02-05T10:32:32.973Z,4.40
2019-02-05T10:35:01.966Z,4.10
2019-02-05T10:37:30.834Z,4.30
2019-02-05T10:40:00.381Z,4.10
2019-02-05T10:42:29.338Z,4.00
2019-02-05T10:44:58.390Z,4.10
2019-02-05T10:47:27.187Z,4.20
2019-02-05T10:49:59.799Z,4.00
2019-02-05T10:52:29.038Z,4.20
2019-02-05T10:54:58.296Z,4.30
2019-02-05T10:57:27.252Z,4.60
2019-02-05T11:00:08.003Z,4.50
2019-02-05T11:02:27.059Z,4.70
2019-02-05T11:04:57.753Z,4.50
2019-02-05T11:07:27.018Z,4.40
2019-02-05T11:09:56.349Z,4.30
2019-02-05T11:12:25.942Z,4.30
2019-02-05T11:14:55.328Z,4.30
2019-02-05T11:17:24.639Z,4.30
2019-02-05T11:19:53.627Z,4.30
2019-02-05T11:22:22.633Z,4.50
2019-02-05T11:24:51.760Z,4.50
2019-02-05T11:27:21.162Z,4.50
2019-02-05T11:29:50.077Z,4.60
2019-02-05T11:32:19.442Z,4.60
2019-02-05T11:34:49.263Z,4.50
2019-02-05T11:37:18.451Z,4.70
2019-02-05T11:39:47.519Z,4.70
2019-02-05T11:42:16.777Z,4.50
2019-02-05T11:44:46.140Z,4.60
2019-02-05T11:47:20.787Z,4.80
2019-02-05T11:49:49.759Z,4.90
2019-02-05T11:52:21.190Z,5.10
2019-02-05T11:54:55.560Z,5.00
2019-02-05T11:57:25.769Z,5.00
2019-02-05T11:59:57.907Z,5.00
2019-02-05T12:02:28.024Z,5.20
2019-02-05T12:04:57.113Z,5.20
2019-02-05T12:07:26.533Z,5.30
2019-02-05T12:09:56.318Z,5.30
2019-02-05T12:12:28.894Z,5.20
2019-02-05T12:15:00.367Z,5.20
2019-02-05T12:17:29.957Z,5.40
2019-02-05T12:19:59.029Z,5.40
2019-02-05T12:22:29.082Z,5.50
2019-02-05T12:24:58.024Z,5.50
2019-02-05T12:27:26.897Z,5.50
2019-02-05T12:29:55.896Z,5.50
2019-02-05T12:32:25.165Z,5.40
2019-02-05T12:34:54.158Z,3.80
2019-02-05T12:37:23.649Z,5.50
2019-02-05T12:39:57.043Z,5.50
2019-02-05T12:42:26.177Z,5.50
2019-02-05T12:44:55.661Z,5.60
2019-02-05T12:47:30.281Z,5.80
2019-02-05T12:50:03.376Z,5.70
2019-02-05T12:52:32.351Z,5.80
2019-02-05T12:55:12.744Z,5.80
2019-02-05T12:57:32.264Z,5.90
2019-02-05T13:00:01.535Z,5.90
2019-02-05T13:02:30.445Z,5.80
2019-02-05T13:04:59.371Z,5.80
2019-02-05T13:07:28.385Z,5.90
2019-02-05T13:09:57.506Z,5.90
2019-02-05T13:12:28.858Z,5.90
2019-02-05T13:14:58.335Z,5.90
2019-02-05T13:17:29.733Z,5.90
2019-02-05T13:20:01.490Z,5.80
2019-02-05T13:22:30.446Z,5.80
2019-02-05T13:24:59.284Z,5.80
2019-02-05T13:27:28.194Z,5.80
2019-02-05T13:29:57.109Z,5.80
2019-02-05T13:32:26.042Z,5.90
2019-02-05T13:34:54.965Z,5.90
2019-02-05T13:37:23.901Z,5.80
2019-02-05T13:39:52.815Z,5.80
2019-02-05T13:42:21.838Z,5.50
2019-02-05T13:44:50.749Z,5.90
2019-02-05T13:47:19.713Z,5.90
2019-02-05T13:49:48.709Z,6.00
2019-02-05T13:52:17.552Z,6.00
2019-02-05T13:54:46.534Z,6.00
2019-02-05T13:57:39.669Z,5.70
2019-02-05T14:00:37.906Z,5.80
2019-02-05T14:03:44.950Z,5.70
2019-02-05T14:09:41.371Z,5.40
2019-02-05T14:12:10.516Z,5.30
2019-02-05T14:14:39.886Z,5.30
2019-02-05T14:17:08.911Z,5.30
2019-02-05T14:19:38.414Z,5.30
2019-02-05T14:22:07.302Z,5.50
2019-02-05T14:24:36.369Z,5.50
2019-02-05T14:27:05.397Z,5.40
2019-02-05T14:29:34.738Z,5.50
2019-02-05T14:32:03.683Z,5.40
2019-02-05T14:34:32.667Z,5.50
2019-02-05T14:37:01.615Z,5.30
2019-02-05T14:39:30.719Z,5.30
2019-02-05T14:41:59.610Z,5.30
2019-02-05T14:44:28.443Z,5.20
2019-02-05T14:46:57.568Z,5.30
2019-02-05T14:49:31.320Z,5.40
2019-02-05T14:52:00.492Z,5.20
2019-02-05T14:54:29.524Z,5.20
2019-02-05T14:56:58.600Z,5.10
2019-02-05T14:59:27.945Z,5.00
2019-02-05T15:01:56.910Z,4.90
2019-02-05T15:04:25.898Z,4.90
2019-02-05T15:06:54.875Z,5.00
2019-02-05T15:09:30.139Z,4.90
2019-02-05T15:12:14.474Z,4.90
2019-02-05T15:14:44.769Z,4.90
2019-02-05T15:17:13.896Z,4.90
2019-02-05T15:19:43.292Z,4.80
2019-02-05T15:22:12.844Z,5.00
2019-02-05T15:24:43.868Z,5.20
2019-02-05T15:27:13.387Z,5.00
2019-02-05T15:29:42.915Z,5.10
2019-02-05T15:32:13.756Z,5.10
2019-02-05T15:34:42.608Z,5.00
2019-02-05T15:37:11.576Z,5.10
2019-02-05T15:39:40.787Z,5.20
2019-02-05T15:42:09.675Z,5.30
2019-02-05T15:44:38.623Z,5.20
2019-02-05T15:47:07.490Z,5.10
2019-02-05T15:49:36.293Z,5.20
2019-02-05T15:52:05.280Z,5.00
2019-02-05T15:54:34.511Z,4.80
2019-02-05T15:57:03.516Z,5.10
2019-02-05T15:59:32.510Z,5.00
2019-02-05T16:02:06.489Z,4.80
2019-02-05T16:04:33.478Z,4.80
2019-02-05T16:07:02.442Z,4.90
2019-02-05T16:09:37.855Z,4.90
2019-02-05T16:12:09.954Z,4.80
2019-02-05T16:14:38.831Z,4.90
2019-02-05T16:17:10.117Z,4.80
2019-02-05T16:19:40.625Z,4.80
2019-02-05T16:22:11.277Z,4.80
2019-02-05T16:24:42.314Z,4.80
2019-02-05T16:27:15.550Z,4.70
2019-02-05T16:29:45.045Z,4.70
2019-02-05T16:32:17.639Z,4.60
2019-02-05T16:34:47.150Z,4.60
2019-02-05T16:37:16.130Z,4.60
2019-02-05T16:39:45.255Z,4.50
2019-02-05T16:42:14.185Z,4.50
2019-02-05T16:44:43.135Z,4.50
2019-02-05T16:47:12.104Z,4.40
2019-02-05T16:49:41.017Z,4.40
2019-02-05T16:52:10.227Z,4.50
2019-02-05T16:54:39.523Z,4.40
2019-02-05T16:57:11.589Z,4.40
2019-02-05T16:59:42.290Z,4.40
2019-02-05T17:02:11.244Z,4.30
2019-02-05T17:04:40.490Z,4.40
2019-02-05T17:07:09.443Z,4.40
2019-02-05T17:09:38.272Z,4.40
2019-02-05T17:12:07.218Z,4.40
2019-02-05T17:14:36.475Z,4.40
2019-02-05T17:17:05.419Z,4.40
2019-02-05T17:19:34.274Z,4.40
2019-02-05T17:22:03.590Z,4.40
2019-02-05T17:24:32.504Z,4.40
2019-02-05T17:27:02.741Z,4.40
2019-02-05T17:29:31.585Z,4.50
2019-02-05T17:32:00.929Z,4.40
2019-02-05T17:34:30.233Z,4.40
2019-02-05T17:36:59.183Z,4.40
2019-02-05T17:39:30.108Z,4.50
2019-02-05T17:41:59.598Z,4.40
2019-02-05T17:44:28.653Z,4.50
2019-02-05T17:46:57.823Z,4.40
2019-02-05T17:49:26.858Z,4.20
2019-02-05T17:51:58.695Z,4.20
2019-02-05T17:54:27.821Z,4.20
2019-02-05T17:56:56.796Z,4.20
2019-02-05T17:59:25.776Z,4.20
2019-02-05T18:01:54.818Z,4.20
2019-02-05T18:04:23.645Z,4.10
2019-02-05T18:06:52.934Z,4.10
2019-02-05T18:09:21.878Z,4.10
2019-02-05T18:11:50.939Z,4.20
2019-02-05T18:14:20.056Z,4.10
2019-02-05T18:16:49.241Z,4.00
2019-02-05T18:19:18.053Z,4.00
2019-02-05T18:21:47.047Z,3.90
2019-02-05T18:24:16.030Z,4.10
2019-02-05T18:26:45.049Z,4.00
2019-02-05T18:29:14.057Z,3.90
2019-02-05T18:31:43.038Z,3.90
2019-02-05T18:34:14.720Z,3.80
2019-02-05T18:36:42.736Z,3.80
2019-02-05T18:39:11.692Z,3.80
2019-02-05T18:41:40.688Z,3.70
2019-02-05T18:44:09.746Z,3.70
2019-02-05T18:46:38.702Z,3.70
2019-02-05T18:49:08.651Z,3.60
2019-02-05T18:51:37.720Z,3.60
2019-02-05T18:54:06.708Z,3.50
2019-02-05T18:56:35.670Z,3.50
2019-02-05T18:59:04.775Z,3.50
2019-02-05T19:01:39.303Z,3.60
2019-02-05T19:04:09.465Z,3.50
2019-02-05T19:06:38.373Z,3.50
2019-02-05T19:09:12.868Z,3.50
2019-02-05T19:11:41.982Z,3.40
2019-02-05T19:14:10.963Z,3.30
2019-02-05T19:16:39.812Z,3.30
2019-02-05T19:19:15.240Z,3.20
2019-02-05T19:21:39.553Z,3.40
2019-02-05T19:24:17.098Z,3.30
2019-02-05T19:26:50.018Z,3.30
2019-02-05T19:29:19.505Z,3.20
2019-02-05T19:31:49.349Z,3.20
2019-02-05T19:34:20.409Z,3.00
2019-02-05T19:36:49.389Z,3.10
2019-02-05T19:39:18.502Z,3.00
2019-02-05T19:41:47.572Z,3.00
2019-02-05T19:44:16.811Z,2.80
2019-02-05T19:46:59.308Z,2.70
2019-02-05T19:49:37.015Z,2.60
2019-02-05T19:52:06.561Z,2.50
2019-02-05T19:54:35.864Z,2.60
2019-02-05T19:57:05.164Z,2.60
2019-02-05T19:59:34.373Z,2.70
2019-02-05T20:02:03.926Z,2.70
2019-02-05T20:04:33.382Z,2.60
2019-02-05T20:07:02.487Z,2.80
2019-02-05T20:09:32.789Z,2.70
2019-02-05T20:12:02.207Z,2.70
2019-02-05T20:14:31.073Z,2.70
2019-02-05T20:17:00.234Z,2.80
2019-02-05T20:19:29.759Z,2.70
2019-02-05T20:21:59.108Z,2.70
2019-02-05T20:24:28.293Z,2.70
2019-02-05T20:26:57.499Z,2.60
2019-02-05T20:29:26.954Z,2.60
2019-02-05T20:31:56.100Z,2.50
2019-02-05T20:34:25.610Z,2.50
2019-02-05T20:36:55.137Z,2.40
2019-02-05T20:39:24.297Z,2.50
2019-02-05T20:41:53.336Z,2.50
2019-02-05T20:44:22.389Z,2.40
2019-02-05T20:46:52.336Z,2.40
2019-02-05T20:49:23.829Z,2.40
2019-02-05T20:51:53.002Z,2.10
2019-02-05T20:54:22.111Z,1.70
2019-02-05T20:56:51.175Z,1.40
2019-02-05T20:59:20.196Z,1.30
2019-02-05T21:01:49.207Z,1.10
2019-02-05T21:04:18.371Z,1.00
2019-02-05T21:06:47.832Z,0.90
2019-02-05T21:09:25.966Z,1.00
2019-02-05T21:11:57.152Z,1.00
2019-02-05T21:14:26.456Z,1.00
2019-02-05T21:16:55.392Z,0.70
2019-02-05T21:19:24.474Z,1.00
2019-02-05T21:21:56.092Z,1.00
2019-02-05T21:24:25.657Z,1.10
2019-02-05T21:26:54.770Z,1.00
2019-02-05T21:29:23.973Z,0.90
2019-02-05T21:31:53.048Z,0.80
2019-02-05T21:34:22.124Z,0.80
2019-02-05T21:36:51.984Z,0.70
2019-02-05T21:39:21.209Z,0.70
2019-02-05T21:41:50.401Z,0.50
2019-02-05T21:44:19.742Z,0.60
2019-02-05T21:46:48.967Z,0.40
2019-02-05T21:49:18.137Z,0.20
2019-02-05T21:51:47.609Z,0.10
2019-02-05T21:54:17.249Z,-0.10
2019-02-05T21:56:46.722Z,-0.10
2019-02-05T21:59:16.348Z,-0.30
2019-02-05T22:01:45.532Z,-0.40
2019-02-05T22:04:14.715Z,-0.30
2019-02-05T22:06:45.188Z,-0.30
2019-02-05T22:09:14.600Z,-0.40
2019-02-05T22:11:44.521Z,-0.10
2019-02-05T22:14:13.526Z,-0.10
2019-02-05T22:16:42.620Z,-0.10
2019-02-05T22:19:11.883Z,-0.20
2019-02-05T22:21:40.951Z,-0.20
2019-02-05T22:24:09.992Z,-0.30
2019-02-05T22:26:38.932Z,-0.20
2019-02-05T22:29:08.199Z,-0.30
2019-02-05T22:31:38.497Z,-0.40
2019-02-05T22:34:07.837Z,-0.30
2019-02-05T22:36:36.827Z,-0.40
2019-02-05T22:39:08.225Z,-0.40
2019-02-05T22:41:37.361Z,-0.50
2019-02-05T22:44:07.579Z,-0.50
2019-02-05T22:46:36.553Z,-0.70
2019-02-05T22:49:05.757Z,-0.80
2019-02-05T22:51:34.703Z,-0.80
2019-02-05T22:54:03.682Z,-0.80
2019-02-05T22:56:32.744Z,-1.00
2019-02-05T22:59:02.034Z,-1.00
2019-02-05T23:01:55.896Z,-1.10
2019-02-05T23:04:37.921Z,-1.10
2019-02-05T23:07:10.602Z,-1.10
2019-02-05T23:09:48.311Z,-1.10
2019-02-05T23:12:24.371Z,-1.10
2019-02-05T23:14:57.022Z,-1.00
2019-02-05T23:17:33.431Z,-1.00
2019-02-05T23:20:03.557Z,-1.30
2019-02-05T23:22:32.777Z,-1.20
2019-02-05T23:25:01.978Z,-1.30
2019-02-05T23:27:31.291Z,-1.30
2019-02-05T23:30:07.656Z,-1.30
2019-02-05T23:32:39.457Z,-1.30
2019-02-05T23:35:08.936Z,-1.30
2019-02-05T23:37:38.816Z,-1.20
2019-02-05T23:40:08.473Z,-1.20
2019-02-05T23:42:37.694Z,-1.20
2019-02-05T23:45:07.500Z,-1.30
2019-02-05T23:47:40.046Z,-1.30
2019-02-05T23:50:11.199Z,-1.30
2019-02-05T23:52:40.595Z,-1.30
2019-02-05T23:55:11.642Z,-1.30
2019-02-05T23:57:40.913Z,-1.30
